Time;durP1;ratioP1;P1;durP2;ratioP2;P2;SDS_P1;SDS_P2;PMS_P1;PMS_P2;Temp;Humidity;BMP_temperature;BMP_pressure;BME280_temperature;BME280_humidity;BME280_pressure;Samples;Min_cycle;Max_cycle;Signal;HPM_P1;HPM_P2
2022/01/12 00:01:11;;;;;;;325.25;51.40;;;3.30;89.50;;;;;;5062281;28;20118;-73
2022/01/12 00:03:37;;;;;;;321.08;52.03;;;3.30;89.50;;;;;;5062638;28;20055;-74
2022/01/12 00:06:04;;;;;;;291.98;50.70;;;3.30;89.50;;;;;;5053802;28;20131;-73
2022/01/12 00:08:31;;;;;;;286.33;48.95;;;3.30;89.60;;;;;;5033636;28;20041;-73
2022/01/12 00:11:01;;;;;;;281.70;51.95;;;3.30;89.60;;;;;;5055409;28;20072;-74
2022/01/12 00:13:27;;;;;;;366.67;57.47;;;3.30;89.70;;;;;;5055923;28;20040;-74
2022/01/12 00:15:53;;;;;;;351.53;53.93;;;3.30;89.50;;;;;;5040871;28;20136;-74
2022/01/12 00:18:20;;;;;;;388.67;57.37;;;3.30;89.70;;;;;;5051549;28;20044;-74
2022/01/12 00:20:47;;;;;;;370.63;56.78;;;3.30;89.60;;;;;;5033341;28;20051;-74
2022/01/12 00:23:14;;;;;;;444.45;62.33;;;3.30;89.60;;;;;;5044318;28;20572;-74
2022/01/12 00:33:56;;;;;;;430.23;60.97;;;3.40;89.70;;;;;;5056463;28;20052;-74
2022/01/12 00:36:21;;;;;;;514.95;67.32;;;3.40;89.70;;;;;;5050363;28;20050;-74
2022/01/12 00:38:47;;;;;;;448.87;57.77;;;3.40;89.60;;;;;;5038847;28;20040;-74
2022/01/12 00:41:17;;;;;;;565.25;71.10;;;3.40;89.70;;;;;;5049385;28;20043;-74
2022/01/12 00:43:45;;;;;;;403.20;56.03;;;3.40;89.70;;;;;;5050612;28;20067;-74
2022/01/12 00:46:13;;;;;;;403.55;56.83;;;3.40;89.70;;;;;;5056167;28;20768;-74
2022/01/12 00:48:39;;;;;;;433.90;60.28;;;3.40;89.70;;;;;;5031320;28;20519;-74
2022/01/12 00:51:04;;;;;;;485.43;65.47;;;3.40;89.70;;;;;;5051025;28;20049;-74
2022/01/12 00:53:30;;;;;;;292.73;51.30;;;3.40;89.60;;;;;;5072134;28;20040;-74
2022/01/12 00:55:56;;;;;;;575.00;70.67;;;3.50;89.70;;;;;;5055895;28;20085;-74
2022/01/12 00:58:22;;;;;;;564.47;67.97;;;3.50;89.70;;;;;;5041718;28;20052;-74
2022/01/12 01:00:48;;;;;;;498.30;62.60;;;3.50;89.70;;;;;;5055048;28;20040;-74
2022/01/12 01:03:15;;;;;;;514.30;67.37;;;3.50;89.70;;;;;;5049375;28;20036;-74
2022/01/12 01:05:41;;;;;;;499.15;65.40;;;3.50;89.80;;;;;;5066662;28;20040;-74
2022/01/12 01:08:07;;;;;;;369.98;55.00;;;3.50;89.70;;;;;;5035939;28;20075;-74
2022/01/12 01:13:03;;;;;;;424.42;60.72;;;3.50;89.70;;;;;;5069431;28;20140;-74
2022/01/12 01:26:32;;;;;;;455.95;62.30;;;3.50;89.80;;;;;;5058332;28;20067;-74
2022/01/12 01:28:57;;;;;;;427.73;60.63;;;3.50;89.90;;;;;;5050948;28;20036;-74
2022/01/12 01:31:31;;;;;;;403.83;56.40;;;3.60;89.80;;;;;;5051082;28;20070;-74
2022/01/12 01:33:59;;;;;;;423.73;59.95;;;3.60;89.80;;;;;;5044455;28;20437;-74
2022/01/12 01:36:28;;;;;;;437.55;62.65;;;3.60;89.80;;;;;;5035462;28;20037;-73
2022/01/12 01:38:54;;;;;;;410.67;58.65;;;3.60;89.80;;;;;;5052152;28;20102;-74
2022/01/12 01:41:23;;;;;;;355.97;53.30;;;3.60;89.80;;;;;;5035120;28;20416;-74
2022/01/12 01:54:50;;;;;;;159.15;37.38;;;3.80;89.90;;;;;;5063286;28;20162;-74
2022/01/12 01:57:16;;;;;;;187.80;38.17;;;3.90;90.00;;;;;;5053959;28;20135;-74
2022/01/12 01:59:41;;;;;;;143.70;34.92;;;3.90;90.00;;;;;;5050819;28;20445;-74
2022/01/12 02:02:07;;;;;;;113.10;30.43;;;3.90;90.00;;;;;;5035319;28;20127;-74
2022/01/12 02:04:33;;;;;;;125.90;29.53;;;4.00;90.00;;;;;;5035655;28;20041;-74
2022/01/12 02:06:59;;;;;;;103.33;25.77;;;4.00;90.00;;;;;;5044367;28;20033;-74
2022/01/12 02:09:25;;;;;;;104.10;26.17;;;4.00;90.10;;;;;;5029609;28;20043;-74
2022/01/12 02:11:52;;;;;;;93.18;24.35;;;4.00;90.10;;;;;;5063595;28;20464;-74
2022/01/12 02:14:19;;;;;;;92.05;23.30;;;4.00;90.10;;;;;;5042810;28;20106;-74
2022/01/12 02:16:59;;;;;;;108.82;23.40;;;4.00;90.00;;;;;;5046361;28;20041;-74
2022/01/12 02:36:13;;;;;;;68.93;16.77;;;3.20;89.90;;;;;;5051038;28;20059;-74
2022/01/12 02:41:23;;;;;;;73.25;16.77;;;2.90;90.00;;;;;;5043378;28;20090;-73
2022/01/12 02:54:49;;;;;;;137.18;18.05;;;2.30;89.90;;;;;;5062658;28;20044;-74
2022/01/12 02:57:16;;;;;;;230.38;21.38;;;2.20;89.90;;;;;;5034576;28;20105;-74
2022/01/12 03:02:39;;;;;;;54.70;12.13;;;1.90;89.80;;;;;;5036778;28;20515;-73
2022/01/12 03:05:33;;;;;;;75.13;14.55;;;1.80;89.70;;;;;;5022545;28;20354;-74
2022/01/12 03:08:08;;;;;;;69.88;13.10;;;1.70;89.70;;;;;;5046758;28;20133;-73
2022/01/12 03:10:34;;;;;;;49.40;11.02;;;1.60;89.80;;;;;;5055472;28;20062;-73
2022/01/12 03:12:59;;;;;;;40.60;11.07;;;1.50;89.70;;;;;;5028999;28;20040;-73
2022/01/12 03:15:25;;;;;;;75.17;11.90;;;1.40;89.70;;;;;;5069836;28;20549;-73
2022/01/12 03:17:51;;;;;;;90.37;15.77;;;1.30;89.70;;;;;;5067986;28;20377;-74
2022/01/12 03:20:17;;;;;;;83.97;16.17;;;1.20;89.70;;;;;;5068720;28;20048;-73
2022/01/12 03:22:43;;;;;;;124.53;16.70;;;1.10;89.70;;;;;;5038019;28;20044;-73
2022/01/12 03:25:09;;;;;;;395.67;28.27;;;1.00;89.80;;;;;;5050061;28;20403;-74
2022/01/12 03:27:35;;;;;;;166.02;13.43;;;0.90;89.70;;;;;;5032956;28;20040;-73
2022/01/12 03:30:02;;;;;;;179.67;15.83;;;0.80;89.70;;;;;;5033645;28;20052;-73
2022/01/12 03:32:44;;;;;;;420.17;29.52;;;0.70;89.70;;;;;;5039918;28;20062;-73
2022/01/12 03:35:25;;;;;;;315.65;21.48;;;0.70;89.70;;;;;;5039559;28;20051;-73
2022/01/12 03:38:19;;;;;;;75.22;9.98;;;0.70;89.70;;;;;;5018987;28;20037;-73
2022/01/12 03:40:40;;;;;;;84.00;10.32;;;0.70;89.70;;;;;;5048448;28;20107;-73
2022/01/12 03:43:06;;;;;;;63.78;8.98;;;0.60;89.60;;;;;;5055934;28;20135;-73
2022/01/12 03:45:31;;;;;;;120.47;13.23;;;0.60;89.70;;;;;;5034791;28;20127;-73
2022/01/12 03:47:57;;;;;;;157.00;13.90;;;0.60;89.70;;;;;;5029409;28;20036;-73
2022/01/12 03:50:23;;;;;;;222.73;19.27;;;0.50;89.80;;;;;;5030703;28;20075;-73
2022/01/12 03:52:48;;;;;;;165.00;19.20;;;0.50;89.70;;;;;;5036166;28;20051;-73
2022/01/12 03:55:14;;;;;;;135.03;13.43;;;0.40;89.70;;;;;;5024732;28;20040;-74
2022/01/12 03:57:40;;;;;;;192.57;17.70;;;0.40;89.60;;;;;;5034088;28;20056;-73
2022/01/12 04:00:06;;;;;;;304.57;22.30;;;0.30;89.70;;;;;;5033536;28;20476;-73
2022/01/12 04:02:33;;;;;;;50.72;4.90;;;0.20;89.70;;;;;;5034289;28;20496;-73
2022/01/12 04:10:27;;;;;;;114.07;9.40;;;0.20;89.70;;;;;;5050170;28;20124;-73
2022/01/12 04:12:53;;;;;;;64.67;4.47;;;0.20;89.70;;;;;;5034078;28;20135;-73
2022/01/12 04:15:18;;;;;;;60.87;3.97;;;0.30;89.70;;;;;;5050847;28;20056;-73
2022/01/12 04:17:44;;;;;;;68.90;4.50;;;0.30;89.70;;;;;;5062962;28;20514;-73
2022/01/12 04:20:10;;;;;;;51.03;3.33;;;0.40;89.80;;;;;;5050555;28;20068;-73
2022/01/12 04:25:22;;;;;;;16.65;2.30;;;0.60;89.80;;;;;;5041355;28;20090;-73
2022/01/12 04:27:47;;;;;;;67.35;6.85;;;0.50;89.70;;;;;;5049534;28;20080;-73
2022/01/12 04:30:13;;;;;;;43.53;3.43;;;0.50;89.70;;;;;;5026721;28;20116;-73
2022/01/12 04:32:42;;;;;;;73.47;6.63;;;0.50;89.80;;;;;;5022683;28;20364;-73
2022/01/12 04:35:08;;;;;;;78.30;6.22;;;0.40;89.80;;;;;;5035698;28;20036;-73
2022/01/12 04:37:34;;;;;;;58.28;4.78;;;0.30;89.70;;;;;;5041479;28;20047;-73
2022/01/12 04:40:00;;;;;;;136.65;8.73;;;0.20;89.80;;;;;;5026144;28;20124;-73
2022/01/12 04:42:25;;;;;;;92.83;6.67;;;0.10;89.80;;;;;;5062020;28;20119;-73
2022/01/12 04:45:00;;;;;;;179.90;12.43;;;0.00;89.80;;;;;;5036954;28;20572;-73
2022/01/12 04:47:46;;;;;;;204.60;10.70;;;0.00;89.70;;;;;;5062433;28;20439;-73
2022/01/12 04:50:11;;;;;;;97.88;6.00;;;0.00;89.80;;;;;;5036944;28;20535;-74
2022/01/12 04:52:37;;;;;;;120.37;7.77;;;0.00;89.80;;;;;;5043870;28;20087;-73
2022/01/12 04:55:03;;;;;;;37.97;3.20;;;0.00;89.70;;;;;;5041132;28;20044;-73
2022/01/12 04:57:29;;;;;;;120.90;7.78;;;0.00;89.80;;;;;;5036434;28;20476;-73
2022/01/12 05:00:07;;;;;;;110.73;7.63;;;-0.10;89.70;;;;;;5034611;28;20044;-73
2022/01/12 05:08:17;;;;;;;59.40;4.13;;;-0.20;89.60;;;;;;5051925;28;20570;-73
2022/01/12 05:13:28;;;;;;;81.80;7.82;;;-0.30;89.60;;;;;;5058226;28;20547;-73
2022/01/12 05:15:55;;;;;;;132.05;8.88;;;-0.30;89.70;;;;;;5060723;28;20040;-73
2022/01/12 05:18:21;;;;;;;64.00;4.03;;;-0.30;89.70;;;;;;5070316;28;20093;-73
2022/01/12 05:20:46;;;;;;;68.43;4.20;;;-0.30;89.70;;;;;;5070878;28;20040;-73
2022/01/12 05:23:13;;;;;;;128.30;7.23;;;-0.30;89.70;;;;;;5054233;28;20036;-73
2022/01/12 05:25:39;;;;;;;111.70;6.63;;;-0.30;89.70;;;;;;5035738;28;20567;-74
2022/01/12 05:28:06;;;;;;;59.00;4.15;;;-0.30;89.80;;;;;;5050411;28;20041;-74
2022/01/12 05:30:32;;;;;;;22.08;2.22;;;-0.30;89.80;;;;;;5024078;28;20052;-74
2022/01/12 05:32:59;;;;;;;23.52;2.22;;;-0.30;89.70;;;;;;5042411;28;20044;-74
2022/01/12 05:35:31;;;;;;;45.20;2.97;;;-0.30;89.70;;;;;;5043888;28;20123;-74
2022/01/12 05:37:57;;;;;;;32.70;2.47;;;-0.30;89.70;;;;;;5065814;28;20036;-74
2022/01/12 05:40:22;;;;;;;44.60;3.08;;;-0.30;89.70;;;;;;5052170;28;20037;-74
2022/01/12 05:42:50;;;;;;;35.60;2.87;;;-0.30;89.70;;;;;;5066270;28;20488;-74
2022/01/12 05:45:18;;;;;;;43.60;3.53;;;-0.40;89.70;;;;;;5039205;28;20459;-74
2022/01/12 05:50:10;;;;;;;35.38;3.33;;;-0.40;89.80;;;;;;5047266;28;20113;-73
2022/01/12 05:52:36;;;;;;;19.13;3.60;;;-0.40;89.70;;;;;;5049087;28;20041;-74
2022/01/12 05:55:03;;;;;;;58.22;5.68;;;-0.40;89.70;;;;;;5017055;28;20614;-74
2022/01/12 05:57:30;;;;;;;20.90;3.33;;;-0.40;89.70;;;;;;5036605;28;20127;-74
2022/01/12 05:59:59;;;;;;;17.40;3.70;;;-0.30;89.80;;;;;;5053755;28;20048;-73
2022/01/12 06:02:25;;;;;;;51.70;6.32;;;-0.20;89.70;;;;;;5061841;28;20074;-74
2022/01/12 06:04:52;;;;;;;47.10;6.07;;;-0.20;89.70;;;;;;5060047;28;20708;-74
2022/01/12 06:07:17;;;;;;;81.22;8.00;;;-0.10;89.80;;;;;;5078965;28;20055;-74
2022/01/12 06:09:43;;;;;;;36.60;4.50;;;-0.10;89.80;;;;;;5047536;28;20041;-74
2022/01/12 06:12:09;;;;;;;50.77;7.63;;;-0.10;89.90;;;;;;5022899;28;20079;-74
2022/01/12 06:14:35;;;;;;;93.03;9.77;;;-0.10;89.80;;;;;;5048995;28;20424;-74
2022/01/12 06:17:01;;;;;;;32.33;4.97;;;-0.10;89.80;;;;;;5035601;28;20056;-74
2022/01/12 06:19:27;;;;;;;87.20;10.87;;;-0.10;89.80;;;;;;5043280;28;20048;-74
2022/01/12 06:21:52;;;;;;;67.03;9.60;;;-0.10;89.90;;;;;;5046624;28;20052;-74
2022/01/12 06:24:18;;;;;;;40.13;6.67;;;-0.10;89.80;;;;;;5023614;28;20101;-74
2022/01/12 06:26:46;;;;;;;99.00;11.43;;;-0.10;89.80;;;;;;5041891;28;20041;-74
2022/01/12 06:31:47;;;;;;;36.20;6.20;;;-0.10;89.80;;;;;;5038747;28;20044;-74
2022/01/12 06:34:13;;;;;;;38.65;7.03;;;-0.10;89.80;;;;;;5054470;28;20165;-74
2022/01/12 06:36:39;;;;;;;103.60;11.33;;;-0.20;89.80;;;;;;5026384;28;20036;-74
2022/01/12 06:39:10;;;;;;;50.83;6.90;;;-0.20;89.80;;;;;;5056743;28;20040;-74
2022/01/12 06:41:40;;;;;;;54.55;7.13;;;-0.20;89.80;;;;;;5085042;28;20045;-73
2022/01/12 06:44:07;;;;;;;59.50;6.65;;;-0.20;89.80;;;;;;5031329;28;20045;-74
2022/01/12 06:46:34;;;;;;;65.68;7.57;;;-0.20;89.80;;;;;;5041854;28;20040;-74
2022/01/12 06:49:01;;;;;;;173.73;14.35;;;-0.20;89.80;;;;;;5051471;28;20063;-73
2022/01/12 06:51:27;;;;;;;88.28;10.45;;;-0.20;89.80;;;;;;5031958;28;20041;-74
2022/01/12 06:53:54;;;;;;;55.45;8.38;;;-0.20;89.70;;;;;;5037628;28;20044;-74
2022/01/12 06:56:20;;;;;;;64.68;8.18;;;-0.20;89.80;;;;;;5022936;28;20168;-74
2022/01/12 06:58:47;;;;;;;84.57;10.73;;;-0.20;89.80;;;;;;5048215;28;20397;-74
2022/01/12 07:01:12;;;;;;;128.98;13.10;;;-0.20;89.80;;;;;;5060340;28;20044;-74
2022/01/12 07:03:38;;;;;;;73.63;9.27;;;-0.10;89.80;;;;;;5063810;28;20043;-74
2022/01/12 07:06:04;;;;;;;121.80;12.50;;;-0.10;89.80;;;;;;5034420;28;20489;-75
2022/01/12 07:08:32;;;;;;;114.25;11.50;;;-0.10;89.80;;;;;;5048197;28;20045;-74
2022/01/12 07:10:58;;;;;;;107.90;12.48;;;0.00;89.90;;;;;;5047774;28;20078;-74
2022/01/12 07:13:24;;;;;;;134.40;13.35;;;0.10;89.90;;;;;;5049891;28;20040;-74
2022/01/12 07:15:50;;;;;;;115.97;12.90;;;0.10;89.80;;;;;;5044741;28;20087;-74
2022/01/12 07:18:16;;;;;;;233.73;21.23;;;0.20;89.90;;;;;;5033671;28;20072;-74
2022/01/12 07:20:42;;;;;;;300.85;24.30;;;0.20;89.90;;;;;;5031482;28;20053;-74
2022/01/12 07:23:09;;;;;;;255.63;21.10;;;0.20;89.90;;;;;;5049973;28;20094;-74
2022/01/12 07:25:34;;;;;;;117.07;13.48;;;0.30;89.90;;;;;;5029240;28;20123;-74
2022/01/12 07:28:00;;;;;;;203.70;18.37;;;0.40;90.00;;;;;;5027974;28;20460;-74
2022/01/12 07:30:26;;;;;;;221.03;19.93;;;0.40;89.90;;;;;;5053372;28;20124;-74
2022/01/12 07:32:52;;;;;;;115.13;13.73;;;0.40;90.00;;;;;;5063093;28;20037;-74
2022/01/12 07:35:18;;;;;;;94.07;13.23;;;0.40;89.90;;;;;;5041908;28;20477;-74
2022/01/12 07:37:43;;;;;;;99.53;14.03;;;0.50;90.00;;;;;;5049321;28;20043;-74
2022/01/12 07:40:10;;;;;;;94.17;12.47;;;0.50;90.00;;;;;;5029880;28;20327;-74
2022/01/12 07:42:36;;;;;;;188.57;17.98;;;0.50;89.90;;;;;;5050917;28;20041;-74
2022/01/12 07:45:02;;;;;;;180.57;18.27;;;0.50;89.90;;;;;;5029131;28;20059;-74
2022/01/12 07:47:30;;;;;;;110.68;13.45;;;0.60;89.90;;;;;;5047755;28;20086;-74
2022/01/12 07:49:57;;;;;;;151.95;16.73;;;0.60;90.10;;;;;;5044235;28;20041;-74
2022/01/12 07:52:23;;;;;;;155.88;14.23;;;0.70;90.00;;;;;;5058776;28;20055;-74
2022/01/12 07:54:49;;;;;;;103.20;11.38;;;0.70;90.00;;;;;;5033915;28;20040;-75
2022/01/12 07:57:14;;;;;;;78.10;10.30;;;0.70;90.00;;;;;;5042964;28;20036;-74
2022/01/12 07:59:40;;;;;;;121.23;13.17;;;0.70;90.10;;;;;;5075033;28;20040;-75
2022/01/12 08:02:07;;;;;;;76.10;9.33;;;0.70;90.00;;;;;;5052014;28;20293;-74
2022/01/12 08:04:32;;;;;;;91.28;10.77;;;0.70;90.10;;;;;;5013209;28;20083;-74
2022/01/12 08:06:58;;;;;;;85.30;10.37;;;0.70;90.00;;;;;;5033063;28;20524;-74
2022/01/12 08:09:24;;;;;;;71.17;8.60;;;0.80;90.00;;;;;;5037926;28;20033;-74
2022/01/12 08:11:50;;;;;;;113.50;10.90;;;0.80;90.10;;;;;;5042268;28;20109;-75
2022/01/12 08:14:15;;;;;;;137.50;11.57;;;0.80;90.00;;;;;;5046855;28;20137;-74
2022/01/12 08:16:42;;;;;;;93.40;9.70;;;0.80;90.10;;;;;;5060292;28;20048;-74
2022/01/12 08:19:08;;;;;;;83.18;9.40;;;0.80;90.10;;;;;;5037314;28;20040;-74
2022/01/12 08:21:34;;;;;;;112.00;9.73;;;0.90;90.00;;;;;;5016472;28;20161;-74
2022/01/12 08:24:00;;;;;;;115.00;9.38;;;0.90;90.00;;;;;;5026333;28;20039;-74
2022/01/12 08:26:27;;;;;;;94.90;8.67;;;0.90;90.10;;;;;;5062575;28;20048;-75
2022/01/12 08:28:52;;;;;;;110.68;8.82;;;0.90;90.00;;;;;;5048799;28;20471;-74
2022/01/12 08:31:20;;;;;;;129.70;9.80;;;0.90;90.10;;;;;;5063473;28;20044;-74
2022/01/12 08:33:48;;;;;;;124.13;10.40;;;0.90;90.00;;;;;;5050075;28;20047;-74
2022/01/12 08:36:14;;;;;;;116.93;10.00;;;0.90;90.10;;;;;;5038675;28;20044;-74
2022/01/12 08:38:40;;;;;;;119.30;10.18;;;0.90;90.10;;;;;;5023377;28;20090;-74
2022/01/12 08:41:06;;;;;;;84.03;9.13;;;0.90;90.10;;;;;;5044035;28;20040;-74
2022/01/12 08:43:32;;;;;;;85.53;9.37;;;0.90;90.00;;;;;;5045438;28;20048;-75
2022/01/12 08:45:58;;;;;;;82.43;8.13;;;0.90;90.00;;;;;;5037391;28;20150;-74
2022/01/12 08:48:24;;;;;;;95.57;8.80;;;0.90;90.10;;;;;;5037080;28;20036;-74
2022/01/12 08:50:50;;;;;;;130.70;12.15;;;0.80;90.10;;;;;;5050970;28;20052;-74
2022/01/12 08:53:16;;;;;;;79.72;9.48;;;0.80;90.00;;;;;;5054103;28;20083;-74
2022/01/12 08:55:41;;;;;;;78.23;9.10;;;0.80;90.10;;;;;;5050168;28;20500;-74
2022/01/12 08:58:07;;;;;;;73.60;8.43;;;0.80;90.00;;;;;;5048548;28;20075;-74
2022/01/12 09:00:33;;;;;;;92.27;10.27;;;0.80;90.10;;;;;;5050900;28;20410;-74
2022/01/12 09:02:59;;;;;;;57.67;7.57;;;0.80;90.10;;;;;;5057726;28;20500;-74
2022/01/12 09:05:25;;;;;;;99.23;9.87;;;0.90;90.00;;;;;;5040016;28;20041;-74
2022/01/12 09:07:52;;;;;;;94.00;9.43;;;0.90;90.10;;;;;;5052665;28;20404;-74
2022/01/12 09:10:18;;;;;;;75.53;9.93;;;0.90;90.10;;;;;;5047996;28;20070;-74
2022/01/12 09:12:44;;;;;;;72.03;8.70;;;1.00;90.10;;;;;;5048310;28;20041;-74
2022/01/12 09:15:11;;;;;;;109.00;11.40;;;1.00;90.10;;;;;;5052839;28;20119;-74
2022/01/12 09:17:37;;;;;;;93.10;9.90;;;1.00;90.10;;;;;;5067671;28;20103;-74
2022/01/12 09:20:05;;;;;;;140.15;13.23;;;1.10;90.10;;;;;;5065737;28;20045;-74
2022/01/12 09:22:31;;;;;;;85.22;11.73;;;1.10;90.10;;;;;;5034658;28;20049;-74
2022/01/12 09:24:56;;;;;;;154.33;14.77;;;1.10;90.00;;;;;;5042560;28;20045;-74
2022/01/12 09:27:22;;;;;;;88.20;9.80;;;1.20;90.10;;;;;;5033133;28;20041;-74
2022/01/12 09:29:48;;;;;;;108.33;12.63;;;1.30;90.20;;;;;;5038260;28;20037;-74
2022/01/12 09:32:14;;;;;;;79.47;9.83;;;1.30;90.10;;;;;;5032996;28;20084;-74
2022/01/12 09:34:40;;;;;;;90.65;10.25;;;1.40;90.20;;;;;;5051370;28;20037;-74
2022/01/12 09:37:06;;;;;;;96.40;11.83;;;1.50;90.20;;;;;;5054324;28;20115;-75
2022/01/12 09:39:34;;;;;;;115.70;12.00;;;1.60;90.10;;;;;;5046602;28;20290;-74
2022/01/12 09:42:00;;;;;;;129.25;12.02;;;1.70;90.20;;;;;;5036764;28;20599;-74
2022/01/12 09:44:31;;;;;;;138.27;11.02;;;1.70;90.30;;;;;;5052206;28;20542;-74
2022/01/12 09:47:00;;;;;;;151.25;12.75;;;1.80;90.20;;;;;;5041380;28;20048;-74
2022/01/12 09:49:26;;;;;;;141.13;11.90;;;1.80;90.30;;;;;;5028387;28;20119;-74
2022/01/12 09:51:52;;;;;;;186.60;15.43;;;1.90;90.30;;;;;;5023088;28;20057;-74
2022/01/12 09:54:20;;;;;;;125.00;10.98;;;2.00;90.20;;;;;;5056855;28;20086;-74
2022/01/12 09:56:47;;;;;;;162.95;12.00;;;2.00;90.30;;;;;;5048064;28;20239;-74
2022/01/12 09:59:13;;;;;;;148.73;10.98;;;2.10;90.30;;;;;;5024163;28;20037;-74
2022/01/12 10:01:43;;;;;;;87.63;9.63;;;2.10;90.30;;;;;;5035858;28;20101;-74
2022/01/12 10:04:16;;;;;;;107.15;10.82;;;2.10;90.30;;;;;;5038144;28;20132;-74
2022/01/12 10:07:02;;;;;;;107.28;9.10;;;2.20;90.30;;;;;;5064358;28;20574;-74
2022/01/12 10:10:07;;;;;;;58.88;7.80;;;2.20;90.20;;;;;;5048250;28;20047;-74
2022/01/12 10:12:34;;;;;;;25.75;4.43;;;2.30;90.40;;;;;;5033948;28;20044;-74
2022/01/12 10:15:02;;;;;;;35.95;5.60;;;2.30;90.30;;;;;;5027844;28;20045;-74
2022/01/12 10:17:36;;;;;;;25.05;5.20;;;2.40;90.30;;;;;;5046829;28;20044;-73
2022/01/12 10:20:13;;;;;;;39.58;6.15;;;2.30;90.30;;;;;;5050697;28;20052;-73
2022/01/12 10:23:07;;;;;;;36.60;5.43;;;2.30;90.30;;;;;;5058860;28;20126;-73
2022/01/12 10:25:34;;;;;;;57.22;6.70;;;2.30;90.30;;;;;;5041614;28;20041;-73
2022/01/12 10:28:19;;;;;;;35.75;6.07;;;2.20;90.30;;;;;;5055164;28;20102;-74
2022/01/12 10:31:15;;;;;;;49.65;5.80;;;2.30;90.20;;;;;;5049464;28;20081;-73
2022/01/12 10:33:40;;;;;;;34.45;6.43;;;2.30;90.20;;;;;;5037210;28;20492;-74
2022/01/12 10:36:06;;;;;;;47.70;7.03;;;2.30;90.30;;;;;;5030016;28;20083;-73
2022/01/12 10:38:32;;;;;;;33.90;6.63;;;2.40;90.30;;;;;;5045675;28;20041;-73
2022/01/12 10:41:04;;;;;;;36.80;6.88;;;2.50;90.40;;;;;;5054016;28;20133;-74
2022/01/12 10:43:42;;;;;;;30.95;5.63;;;2.60;90.30;;;;;;5052850;28;20036;-73
2022/01/12 10:46:20;;;;;;;34.90;6.10;;;2.60;90.30;;;;;;5045839;28;20044;-74
2022/01/12 10:48:49;;;;;;;35.47;7.10;;;2.70;90.30;;;;;;5025074;28;20086;-74
2022/01/12 10:51:16;;;;;;;29.35;6.43;;;2.80;90.40;;;;;;5069365;28;20049;-73
2022/01/12 10:53:43;;;;;;;27.73;6.55;;;2.80;90.40;;;;;;5062451;28;20040;-73
2022/01/12 10:56:11;;;;;;;28.42;6.22;;;2.90;90.40;;;;;;5054559;28;20041;-73
2022/01/12 10:58:40;;;;;;;19.30;5.43;;;3.00;90.30;;;;;;5047580;28;20389;-73
2022/01/12 11:01:06;;;;;;;21.27;5.65;;;3.10;90.50;;;;;;5033506;28;20379;-74
2022/01/12 11:03:32;;;;;;;17.33;4.80;;;3.10;90.40;;;;;;5035834;28;20106;-73
2022/01/12 11:05:58;;;;;;;18.88;5.43;;;3.20;90.40;;;;;;5058479;28;20040;-73
2022/01/12 11:08:25;;;;;;;14.02;4.72;;;3.20;90.40;;;;;;5027165;28;20127;-74
2022/01/12 11:10:55;;;;;;;19.58;5.53;;;3.30;90.40;;;;;;5049593;28;20103;-74
2022/01/12 11:13:22;;;;;;;18.58;5.57;;;3.40;90.50;;;;;;5039296;28;20041;-73
2022/01/12 11:15:49;;;;;;;19.25;5.97;;;3.50;90.50;;;;;;5037311;28;20071;-73
2022/01/12 11:18:16;;;;;;;16.65;5.95;;;3.60;90.50;;;;;;5052610;28;20040;-73
2022/01/12 11:20:44;;;;;;;22.33;6.10;;;3.70;90.50;;;;;;5041244;28;20075;-73
2022/01/12 11:23:17;;;;;;;17.75;4.90;;;3.80;90.50;;;;;;5041138;28;20052;-74
2022/01/12 11:25:43;;;;;;;16.88;5.43;;;3.90;90.50;;;;;;5028650;28;20086;-73
2022/01/12 11:28:11;;;;;;;17.75;5.88;;;4.00;90.50;;;;;;5045453;28;20053;-73
2022/01/12 11:30:39;;;;;;;27.23;6.75;;;4.00;90.60;;;;;;5052372;28;20040;-73
2022/01/12 11:33:09;;;;;;;16.08;5.97;;;4.10;90.50;;;;;;5044613;28;20047;-73
2022/01/12 11:35:50;;;;;;;22.30;6.60;;;4.10;90.60;;;;;;5053555;28;20495;-73
2022/01/12 11:38:30;;;;;;;20.13;6.60;;;4.20;90.50;;;;;;5057368;28;20040;-73
2022/01/12 11:41:13;;;;;;;20.88;7.28;;;4.30;90.60;;;;;;5058381;28;20032;-73
2022/01/12 11:43:50;;;;;;;18.52;6.93;;;4.40;90.50;;;;;;5028379;28;20032;-73
2022/01/12 11:46:18;;;;;;;22.88;8.05;;;4.40;90.60;;;;;;5049066;28;20080;-73
2022/01/12 11:48:50;;;;;;;23.38;7.93;;;4.50;90.60;;;;;;5064273;28;20084;-73
2022/01/12 11:51:18;;;;;;;18.75;8.93;;;4.60;90.60;;;;;;5072739;28;20544;-74
2022/01/12 11:53:54;;;;;;;28.58;10.35;;;4.60;90.60;;;;;;5045012;28;20033;-73
2022/01/12 11:56:25;;;;;;;24.15;9.63;;;4.70;90.70;;;;;;5037036;28;20041;-73
2022/01/12 11:59:06;;;;;;;23.70;8.10;;;4.80;90.70;;;;;;5056876;28;20088;-73
2022/01/12 12:01:37;;;;;;;28.00;8.43;;;4.80;90.70;;;;;;5034806;28;20052;-73
2022/01/12 12:04:04;;;;;;;20.33;8.80;;;4.90;90.60;;;;;;5044815;28;20045;-73
2022/01/12 12:06:30;;;;;;;25.58;7.93;;;4.90;90.70;;;;;;5027782;28;20036;-73
2022/01/12 12:08:59;;;;;;;26.20;7.97;;;5.00;90.60;;;;;;5019048;28;20135;-73
2022/01/12 12:11:28;;;;;;;24.08;8.52;;;5.10;90.60;;;;;;5050386;28;20067;-73
2022/01/12 12:13:59;;;;;;;22.40;8.65;;;5.10;90.70;;;;;;5030615;28;20036;-73
2022/01/12 12:16:25;;;;;;;20.38;8.25;;;5.20;90.70;;;;;;5059444;28;20039;-73
2022/01/12 12:18:51;;;;;;;28.67;8.20;;;5.30;90.70;;;;;;5018547;28;20052;-73
2022/01/12 12:21:17;;;;;;;24.43;8.10;;;5.30;90.60;;;;;;5034890;28;20082;-73
2022/01/12 12:23:42;;;;;;;20.02;8.18;;;5.40;90.60;;;;;;5057770;28;20524;-74
2022/01/12 12:26:11;;;;;;;26.07;8.47;;;5.40;90.60;;;;;;5045779;28;20043;-73
2022/01/12 12:28:37;;;;;;;26.60;8.05;;;5.50;90.70;;;;;;5064267;28;20348;-73
2022/01/12 12:31:05;;;;;;;21.98;8.13;;;5.50;90.70;;;;;;5052538;28;20049;-73
2022/01/12 12:33:31;;;;;;;17.88;7.50;;;5.60;90.60;;;;;;5018295;28;20041;-73
2022/01/12 12:35:57;;;;;;;24.90;9.47;;;5.60;90.70;;;;;;5016752;28;20556;-73
2022/01/12 12:38:22;;;;;;;26.87;9.13;;;5.70;90.70;;;;;;5006019;28;20045;-73
2022/01/12 12:40:55;;;;;;;28.17;7.67;;;5.70;90.70;;;;;;5011963;28;20127;-73
2022/01/12 12:43:33;;;;;;;24.52;8.27;;;5.80;90.60;;;;;;5056443;28;20080;-74
2022/01/12 12:46:05;;;;;;;21.27;8.32;;;5.80;90.60;;;;;;5063239;28;20086;-74
2022/01/12 12:48:35;;;;;;;19.58;7.13;;;5.90;90.60;;;;;;5054684;28;20041;-73
2022/01/12 12:51:02;;;;;;;20.60;7.00;;;5.90;90.70;;;;;;5061700;28;20057;-74
2022/01/12 12:53:34;;;;;;;20.02;7.82;;;5.90;90.70;;;;;;5041944;28;20048;-74
2022/01/12 12:56:00;;;;;;;21.15;6.88;;;5.90;90.60;;;;;;5073928;28;20045;-74
2022/01/12 12:58:29;;;;;;;19.55;6.45;;;5.90;90.70;;;;;;5044035;28;20132;-75
2022/01/12 13:01:10;;;;;;;25.45;7.60;;;5.90;90.60;;;;;;5058135;28;20098;-74
2022/01/12 13:03:37;;;;;;;20.75;6.72;;;5.90;90.70;;;;;;5062283;28;20037;-74
2022/01/12 13:06:03;;;;;;;16.83;7.35;;;5.90;90.60;;;;;;5062514;28;20033;-74
2022/01/12 13:08:30;;;;;;;18.00;6.72;;;6.00;90.60;;;;;;5053442;28;20047;-74
2022/01/12 13:10:55;;;;;;;18.38;6.32;;;6.00;90.70;;;;;;5046319;28;20084;-74
2022/01/12 13:13:21;;;;;;;18.97;6.50;;;6.00;90.60;;;;;;5050424;28;20075;-74
2022/01/12 13:15:47;;;;;;;22.40;6.97;;;6.00;90.60;;;;;;5061202;28;20044;-74
2022/01/12 13:18:21;;;;;;;21.67;7.60;;;6.00;90.60;;;;;;5061743;28;20037;-74
2022/01/12 13:21:07;;;;;;;27.80;7.07;;;6.00;90.60;;;;;;5038502;28;20340;-74
2022/01/12 13:23:42;;;;;;;24.23;7.63;;;6.00;90.60;;;;;;5028385;28;20527;-74
2022/01/12 13:26:12;;;;;;;22.05;6.78;;;6.10;90.50;;;;;;5079323;28;20045;-73
2022/01/12 13:28:40;;;;;;;26.83;7.63;;;6.10;90.50;;;;;;5074785;28;20125;-73
2022/01/12 13:31:12;;;;;;;24.35;7.22;;;6.10;90.60;;;;;;5037044;28;20048;-73
2022/01/12 13:33:40;;;;;;;24.25;7.10;;;6.10;90.50;;;;;;5056064;28;20041;-73
2022/01/12 13:36:17;;;;;;;29.13;8.20;;;6.10;90.40;;;;;;5051084;28;20041;-73
2022/01/12 13:38:46;;;;;;;23.75;6.45;;;6.20;90.50;;;;;;5049065;28;20045;-73
2022/01/12 13:41:22;;;;;;;20.40;6.78;;;6.20;90.40;;;;;;5046984;28;20294;-73
2022/01/12 13:43:54;;;;;;;20.67;6.50;;;6.20;90.40;;;;;;5049297;28;20041;-73
2022/01/12 13:46:29;;;;;;;33.35;6.40;;;6.20;90.30;;;;;;5031918;28;20041;-73
2022/01/12 13:51:37;;;;;;;23.17;7.00;;;6.10;90.00;;;;;;5057240;28;20048;-73
2022/01/12 13:54:13;;;;;;;18.23;7.45;;;6.10;89.80;;;;;;5041476;28;20072;-73
2022/01/12 13:56:45;;;;;;;26.73;7.30;;;6.10;89.90;;;;;;5047997;28;20037;-73
2022/01/12 13:59:12;;;;;;;23.48;6.93;;;6.10;89.80;;;;;;5047290;28;20040;-73
2022/01/12 14:01:41;;;;;;;26.98;7.80;;;6.00;89.80;;;;;;5021533;28;20037;-73
2022/01/12 14:04:18;;;;;;;17.42;6.65;;;5.90;89.90;;;;;;5060922;28;20048;-74
2022/01/12 14:06:47;;;;;;;18.45;6.40;;;5.90;89.90;;;;;;5036332;28;20036;-73
2022/01/12 14:09:24;;;;;;;16.30;5.93;;;5.80;89.90;;;;;;5066538;28;20051;-74
2022/01/12 14:11:50;;;;;;;19.20;5.43;;;5.70;89.80;;;;;;5053311;28;20048;-73
2022/01/12 14:14:17;;;;;;;42.92;6.65;;;5.60;89.70;;;;;;5065480;28;20048;-73